createdAt,value
2022-09-23T03:18:21.121Z,100.00
2022-09-23T03:21:38.862Z,100.00
2022-09-23T03:24:54.054Z,100.00
2022-09-23T03:28:05.852Z,100.00
2022-09-23T03:31:18.184Z,100.00
2022-09-23T03:34:32.938Z,100.00
2022-09-23T03:37:48.639Z,100.00
2022-09-23T03:41:02.927Z,100.00
2022-09-23T03:44:15.653Z,100.00
2022-09-23T03:47:28.167Z,100.00
2022-09-23T03:50:41.961Z,100.00
2022-09-23T03:53:52.418Z,100.00
2022-09-23T03:57:03.421Z,100.00
2022-09-23T04:00:14.913Z,100.00
2022-09-23T04:03:29.332Z,100.00
2022-09-23T04:06:41.084Z,100.00
2022-09-23T04:09:51.821Z,100.00
2022-09-23T04:13:01.973Z,100.00
2022-09-23T04:16:15.113Z,100.00
2022-09-23T04:19:25.434Z,100.00
2022-09-23T04:22:38.982Z,100.00
2022-09-23T04:25:55.710Z,100.00
2022-09-23T04:29:09.927Z,100.00
2022-09-23T04:32:24.917Z,100.00
2022-09-23T04:35:39.438Z,100.00
2022-09-23T04:38:52.185Z,100.00
2022-09-23T04:42:04.419Z,100.00
2022-09-23T04:45:16.839Z,100.00
2022-09-23T04:48:26.758Z,100.00
2022-09-23T04:51:36.844Z,100.00
2022-09-23T04:54:50.484Z,100.00
2022-09-23T04:58:00.620Z,100.00
2022-09-23T06:59:49.175Z,100.00
2022-09-23T07:03:07.845Z,100.00
2022-09-23T07:06:18.200Z,100.00
2022-09-23T07:09:28.007Z,100.00
2022-09-23T07:12:37.951Z,100.00
2022-09-23T07:15:51.852Z,100.00
2022-09-23T07:19:02.563Z,100.00
2022-09-23T07:22:12.564Z,100.00
2022-09-23T07:25:22.997Z,100.00
2022-09-23T07:28:32.912Z,100.00
2022-09-23T07:31:44.325Z,100.00
2022-09-23T07:34:54.530Z,100.00
2022-09-23T07:38:04.256Z,100.00
2022-09-23T07:41:16.170Z,100.00
2022-09-23T07:44:26.851Z,100.00
2022-09-23T07:47:40.859Z,100.00
2022-09-23T07:50:50.911Z,100.00
2022-09-23T07:54:01.159Z,99.80
2022-09-23T07:57:11.279Z,98.99
2022-09-23T08:00:21.667Z,100.00
2022-09-23T08:03:32.981Z,99.27
2022-09-23T08:06:43.835Z,97.36
2022-09-23T08:09:56.301Z,96.43
2022-09-23T08:13:06.257Z,94.18
2022-09-23T08:16:20.271Z,92.34
2022-09-23T08:19:31.762Z,90.11
2022-09-23T08:22:41.530Z,87.34
2022-09-23T08:29:15.479Z,77.84
2022-09-23T08:32:25.383Z,74.69
2022-09-23T08:35:36.438Z,73.08
2022-09-23T08:38:46.120Z,71.13
2022-09-23T08:42:11.074Z,69.41
2022-09-23T08:45:27.427Z,67.04
2022-09-23T08:48:44.814Z,66.37
2022-09-23T08:51:57.279Z,63.61
2022-09-23T08:55:12.886Z,61.86
2022-09-23T08:58:35.324Z,59.82
2022-09-23T09:01:47.330Z,58.92
2022-09-23T09:05:03.285Z,56.56
2022-09-23T09:08:15.405Z,56.25
2022-09-23T09:11:34.225Z,57.22
2022-09-23T09:14:53.762Z,54.49
2022-09-23T09:18:07.842Z,55.83
2022-09-23T09:21:17.701Z,54.70
2022-09-23T09:24:35.150Z,53.47
2022-09-23T09:27:45.465Z,53.68
2022-09-23T09:30:58.358Z,53.89
2022-09-23T09:34:20.306Z,52.83
2022-09-23T09:37:35.782Z,51.38
2022-09-23T09:40:48.755Z,52.48
2022-09-23T09:44:00.944Z,52.58
2022-09-23T09:47:28.355Z,51.41
2022-09-23T09:50:45.717Z,50.19
2022-09-23T09:53:56.840Z,50.40
2022-09-23T09:57:18.830Z,49.08
2022-09-23T10:00:41.439Z,48.87
2022-09-23T10:03:56.965Z,48.90
2022-09-23T10:07:13.546Z,48.34
2022-09-23T10:10:33.885Z,48.41
2022-09-23T10:14:04.176Z,46.95
2022-09-23T10:17:18.917Z,46.34
2022-09-23T10:20:38.029Z,47.23
2022-09-23T10:23:52.486Z,46.70
2022-09-23T10:27:07.601Z,47.28
2022-09-23T10:30:26.232Z,47.54
2022-09-23T10:33:43.554Z,47.31
2022-09-23T10:36:56.702Z,48.81
2022-09-23T10:40:28.008Z,48.90
2022-09-23T10:44:02.599Z,49.20
2022-09-23T10:47:24.652Z,48.18
2022-09-23T10:50:42.915Z,49.45
2022-09-23T10:54:00.989Z,48.86
2022-09-23T10:57:32.805Z,49.76
2022-09-23T11:00:51.783Z,49.92
2022-09-23T11:04:24.938Z,49.82
2022-09-23T11:07:39.624Z,49.37
2022-09-23T11:11:04.361Z,50.95
2022-09-23T11:14:28.388Z,51.19
2022-09-23T11:18:06.381Z,51.55
2022-09-23T11:21:35.202Z,52.56
2022-09-23T11:25:01.454Z,52.30
2022-09-23T11:28:38.811Z,51.84
2022-09-23T11:31:59.698Z,51.06
2022-09-23T11:35:16.760Z,49.51
2022-09-23T11:38:34.401Z,49.80
2022-09-23T11:41:45.568Z,48.72
2022-09-23T11:45:00.678Z,48.42
2022-09-23T11:48:19.438Z,48.87
2022-09-23T11:51:34.877Z,49.07
2022-09-23T11:54:51.173Z,48.68
2022-09-23T11:58:16.965Z,50.12
2022-09-23T12:01:37.889Z,51.30
2022-09-23T12:04:58.604Z,51.11
2022-09-23T12:08:17.881Z,51.14
2022-09-23T12:11:37.128Z,50.23
2022-09-23T12:14:57.475Z,48.47
2022-09-23T12:18:23.493Z,48.60
2022-09-23T12:21:50.706Z,47.13
2022-09-23T12:25:19.555Z,46.92
2022-09-23T12:28:37.562Z,46.11
2022-09-23T12:31:48.204Z,44.24
2022-09-23T12:34:58.060Z,44.86
2022-09-23T12:38:14.812Z,45.08
2022-09-23T12:41:29.528Z,45.08
2022-09-23T12:44:43.338Z,46.00
2022-09-23T12:47:53.162Z,45.00
2022-09-23T12:51:18.247Z,44.88
2022-09-23T12:54:28.121Z,47.33
2022-09-23T12:57:42.619Z,47.90
2022-09-23T13:01:08.438Z,47.93
2022-09-23T13:04:43.369Z,47.39
2022-09-23T13:07:59.939Z,46.10
2022-09-23T13:11:20.084Z,46.65
2022-09-23T13:14:32.971Z,47.05
2022-09-23T13:17:46.337Z,47.69
2022-09-23T13:20:57.754Z,48.12
2022-09-23T13:24:20.439Z,47.49
2022-09-23T13:27:33.639Z,47.68
2022-09-23T13:30:50.880Z,48.66
2022-09-23T13:34:06.778Z,49.36
2022-09-23T13:37:22.771Z,48.64
2022-09-23T13:40:35.354Z,46.72
2022-09-23T13:43:55.432Z,47.67
2022-09-23T13:47:05.544Z,47.53
2022-09-23T13:50:21.518Z,49.46
2022-09-23T13:53:33.958Z,48.71
2022-09-23T13:56:50.154Z,47.68
2022-09-23T14:00:02.714Z,48.22
2022-09-23T14:03:18.843Z,48.60
2022-09-23T14:06:31.741Z,49.05
2022-09-23T14:09:43.938Z,50.60
2022-09-23T14:12:55.354Z,51.02
2022-09-23T14:16:07.954Z,50.97
2022-09-23T14:19:19.504Z,51.39
2022-09-23T14:22:31.859Z,49.81
2022-09-23T14:25:43.079Z,48.26
2022-09-23T14:28:53.910Z,49.65
2022-09-23T14:32:06.544Z,49.76
2022-09-23T14:35:21.590Z,49.89
2022-09-23T14:38:43.765Z,49.15
2022-09-23T14:41:53.458Z,49.27
2022-09-23T14:45:04.761Z,48.61
2022-09-23T14:48:18.443Z,50.50
2022-09-23T14:51:34.171Z,51.33
2022-09-23T14:54:46.684Z,52.24
2022-09-23T14:58:04.656Z,52.93
2022-09-23T15:01:33.550Z,53.10
2022-09-23T15:04:43.466Z,54.58
2022-09-23T15:07:58.730Z,56.76
2022-09-23T15:11:09.787Z,57.75
2022-09-23T15:14:37.402Z,58.86
2022-09-23T15:17:48.708Z,58.89
2022-09-23T15:21:02.693Z,59.09
2022-09-23T15:24:34.926Z,59.90
2022-09-23T15:27:59.205Z,60.70
2022-09-23T15:31:12.837Z,60.89
2022-09-23T15:34:22.612Z,62.61
2022-09-23T15:37:36.194Z,63.53
2022-09-23T15:40:46.489Z,65.96
2022-09-23T15:43:58.180Z,65.77
2022-09-23T15:47:19.058Z,66.17
2022-09-23T15:50:31.265Z,67.29
2022-09-23T15:53:40.945Z,68.22
2022-09-23T15:56:50.559Z,68.61
2022-09-23T16:00:01.727Z,69.12
2022-09-23T16:03:23.734Z,69.86
2022-09-23T16:06:36.047Z,69.71
2022-09-23T16:09:45.673Z,68.55
2022-09-23T16:12:57.791Z,69.16
2022-09-23T16:16:09.346Z,71.31
2022-09-23T16:19:19.159Z,70.78
2022-09-23T16:22:31.741Z,71.58
2022-09-23T16:25:41.567Z,73.56
2022-09-23T16:28:53.388Z,74.77
2022-09-23T16:32:04.530Z,74.32
2022-09-23T16:35:16.623Z,74.58
2022-09-23T16:38:26.312Z,76.13
2022-09-23T16:41:35.942Z,77.47
2022-09-23T16:44:45.601Z,76.90
2022-09-23T16:47:56.467Z,76.36
2022-09-23T16:51:06.360Z,75.76
2022-09-23T16:54:17.293Z,76.75
2022-09-23T16:57:30.281Z,77.42
2022-09-23T17:00:51.456Z,77.75
2022-09-23T17:04:03.647Z,77.02
2022-09-23T17:07:13.273Z,78.23
2022-09-23T17:10:22.887Z,80.58
2022-09-23T17:13:32.626Z,81.12
2022-09-23T17:16:42.599Z,80.92
2022-09-23T17:19:53.528Z,80.89
2022-09-23T17:23:05.283Z,79.85
2022-09-23T17:26:15.073Z,80.90
2022-09-23T17:29:27.071Z,81.19
2022-09-23T17:32:36.710Z,81.56
2022-09-23T17:35:47.759Z,84.42
2022-09-23T17:38:57.443Z,85.95
2022-09-23T17:42:07.704Z,85.38
2022-09-23T17:45:17.350Z,85.17
2022-09-23T17:48:27.057Z,85.81
2022-09-23T17:51:37.979Z,86.00
2022-09-23T17:54:47.924Z,85.67
2022-09-23T17:57:57.967Z,85.34
2022-09-23T18:01:10.920Z,84.91
2022-09-23T18:04:20.943Z,85.00
2022-09-23T18:07:31.866Z,86.49
2022-09-23T18:10:41.546Z,86.86
2022-09-23T18:13:54.179Z,89.05
2022-09-23T18:17:03.797Z,89.66
2022-09-23T18:20:13.386Z,89.44
2022-09-23T18:23:26.168Z,87.83
2022-09-23T18:26:36.134Z,87.90
2022-09-23T18:29:45.751Z,88.80
2022-09-23T18:32:55.352Z,89.70
2022-09-23T18:36:05.743Z,89.65
2022-09-23T18:39:17.235Z,90.64
2022-09-23T18:42:27.004Z,93.00
2022-09-23T18:45:36.800Z,92.90
2022-09-23T18:48:57.563Z,93.24
2022-09-23T18:52:07.172Z,91.90
2022-09-23T18:55:18.618Z,92.17
2022-09-23T18:58:29.019Z,92.17
2022-09-23T19:01:39.029Z,93.87
2022-09-23T19:04:49.107Z,94.24
2022-09-23T19:07:58.764Z,94.27
2022-09-23T19:11:12.344Z,94.67
2022-09-23T19:14:23.841Z,94.64
2022-09-23T19:17:34.052Z,94.97
2022-09-23T19:20:51.122Z,96.37
2022-09-23T19:24:04.945Z,96.61
2022-09-23T19:27:16.430Z,97.87
2022-09-23T19:30:27.910Z,98.15
2022-09-23T19:33:38.208Z,98.01
2022-09-23T19:36:48.753Z,98.20
2022-09-23T19:39:58.573Z,97.73
2022-09-23T19:43:09.690Z,97.65
2022-09-23T19:46:19.548Z,97.59
2022-09-23T19:49:30.313Z,99.06
2022-09-23T19:52:40.241Z,98.98
2022-09-23T19:55:50.035Z,99.27
2022-09-23T19:59:03.019Z,98.58
2022-09-23T20:02:12.917Z,98.13
2022-09-23T20:05:23.173Z,98.02
2022-09-23T20:08:36.104Z,97.84
2022-09-23T20:11:48.731Z,98.71
2022-09-23T20:15:00.842Z,98.92
2022-09-23T20:18:11.194Z,99.95
2022-09-23T20:21:20.922Z,100.00
2022-09-23T20:24:30.589Z,100.00
2022-09-23T20:27:40.938Z,100.00
2022-09-23T20:30:52.453Z,100.00
2022-09-23T20:34:05.865Z,100.00
2022-09-23T20:37:17.931Z,99.86
2022-09-23T20:40:27.665Z,100.00
2022-09-23T20:43:37.389Z,100.00
2022-09-23T20:46:49.452Z,100.00
2022-09-23T20:49:59.319Z,100.00
2022-09-23T20:53:09.092Z,100.00
2022-09-23T20:56:19.799Z,100.00
2022-09-23T20:59:29.439Z,100.00
2022-09-23T21:02:40.553Z,100.00
2022-09-23T21:05:50.478Z,100.00
2022-09-23T21:09:02.973Z,100.00
2022-09-23T21:12:12.778Z,100.00
2022-09-23T21:15:23.510Z,100.00
2022-09-23T21:18:35.199Z,100.00
2022-09-23T21:21:45.702Z,100.00
2022-09-23T21:28:25.264Z,100.00
2022-09-23T21:31:36.549Z,100.00
2022-09-23T21:34:48.282Z,100.00
2022-09-23T21:38:00.862Z,100.00
2022-09-23T21:41:12.010Z,100.00
2022-09-23T21:44:21.784Z,100.00
2022-09-23T21:47:32.338Z,100.00
2022-09-23T21:50:43.398Z,100.00
2022-09-23T21:53:55.327Z,100.00
2022-09-23T21:57:05.179Z,100.00
2022-09-23T22:00:15.522Z,100.00
2022-09-23T22:03:25.455Z,100.00
2022-09-23T22:06:39.747Z,100.00
2022-09-23T22:09:49.428Z,100.00
2022-09-23T22:12:59.083Z,100.00
2022-09-23T22:16:10.460Z,100.00
2022-09-23T22:19:20.461Z,100.00
2022-09-23T22:22:34.412Z,100.00
2022-09-23T22:25:44.108Z,100.00
2022-09-23T22:29:04.924Z,100.00
2022-09-23T22:32:25.691Z,100.00
2022-09-23T22:35:35.609Z,100.00
